createdAt,value
2023-04-18T00:02:17.147Z,63.99
2023-04-18T00:04:46.484Z,63.47
2023-04-18T00:07:16.019Z,64.17
2023-04-18T00:09:43.754Z,63.98
2023-04-18T00:12:12.589Z,64.01
2023-04-18T00:14:41.045Z,63.75
2023-04-18T00:17:08.999Z,64.03
2023-04-18T00:19:38.571Z,64.15
2023-04-18T00:22:07.138Z,63.80
2023-04-18T00:24:36.126Z,63.74
2023-04-18T00:27:03.761Z,64.24
2023-04-18T00:29:31.956Z,63.86
2023-04-18T00:31:59.543Z,64.02
2023-04-18T00:34:27.184Z,63.91
2023-04-18T00:36:54.771Z,64.24
2023-04-18T00:39:22.377Z,64.08
2023-04-18T00:41:51.345Z,64.24
2023-04-18T00:44:19.017Z,64.05
2023-04-18T00:46:46.696Z,63.96
2023-04-18T00:49:14.710Z,63.90
2023-04-18T00:51:42.754Z,64.00
2023-04-18T00:54:13.208Z,64.28
2023-04-18T00:56:41.210Z,64.25
2023-04-18T00:59:11.079Z,64.13
2023-04-18T01:01:40.371Z,64.22
2023-04-18T01:04:09.370Z,64.20
2023-04-18T01:06:37.378Z,64.14
2023-04-18T01:09:05.828Z,64.22
2023-04-18T01:11:33.411Z,64.24
2023-04-18T01:14:01.983Z,64.41
2023-04-18T01:16:33.173Z,64.21
2023-04-18T01:19:01.005Z,64.02
2023-04-18T01:21:31.018Z,64.22
2023-04-18T01:24:01.682Z,63.98
2023-04-18T01:26:31.059Z,64.21
2023-04-18T01:28:58.666Z,64.04
2023-04-18T01:31:26.325Z,64.14
2023-04-18T01:33:53.977Z,64.54
2023-04-18T01:36:21.597Z,64.30
2023-04-18T01:38:49.166Z,64.24
2023-04-18T01:41:16.793Z,64.19
2023-04-18T01:43:46.051Z,64.17
2023-04-18T01:46:13.882Z,64.10
2023-04-18T01:48:41.510Z,64.16
2023-04-18T01:51:09.087Z,63.86
2023-04-18T01:53:36.717Z,64.24
2023-04-18T01:56:04.340Z,64.04
2023-04-18T01:58:31.977Z,64.28
2023-04-18T02:01:00.945Z,64.01
2023-04-18T02:03:28.751Z,64.01
2023-04-18T02:05:57.063Z,64.17
2023-04-18T02:08:24.704Z,64.06
2023-04-18T02:10:52.291Z,64.18
2023-04-18T02:13:19.934Z,64.09
2023-04-18T02:15:47.777Z,64.09
2023-04-18T02:18:17.383Z,64.41
2023-04-18T02:20:45.188Z,64.13
2023-04-18T02:23:12.849Z,64.42
2023-04-18T02:25:40.462Z,64.40
2023-04-18T02:28:08.124Z,63.95
2023-04-18T02:30:35.783Z,64.23
2023-04-18T02:33:03.610Z,63.97
2023-04-18T02:35:32.633Z,64.29
2023-04-18T02:38:00.573Z,64.08
2023-04-18T02:40:28.227Z,64.08
2023-04-18T02:42:55.847Z,64.25
2023-04-18T02:45:23.448Z,64.17
2023-04-18T02:47:55.533Z,64.29
2023-04-18T02:50:24.273Z,64.17
2023-04-18T02:52:53.249Z,64.29
2023-04-18T02:55:21.918Z,64.20
2023-04-18T02:57:49.688Z,64.36
2023-04-18T03:00:17.607Z,64.01
2023-04-18T03:02:45.260Z,64.29
2023-04-18T03:05:12.975Z,64.14
2023-04-18T03:07:40.595Z,64.24
2023-04-18T03:10:10.575Z,63.96
2023-04-18T03:12:38.557Z,64.13
2023-04-18T03:15:07.465Z,64.02
2023-04-18T03:17:36.534Z,64.22
2023-04-18T03:20:04.444Z,64.17
2023-04-18T03:22:32.031Z,64.12
2023-04-18T03:25:00.898Z,64.17
2023-04-18T03:27:29.855Z,64.18
2023-04-18T03:29:57.516Z,64.21
2023-04-18T03:32:25.245Z,64.20
2023-04-18T03:34:52.877Z,64.22
2023-04-18T03:37:20.504Z,64.07
2023-04-18T03:39:48.307Z,64.10
2023-04-18T03:42:15.899Z,64.22
2023-04-18T03:44:44.844Z,64.35
2023-04-18T03:47:12.472Z,64.14
2023-04-18T03:49:40.530Z,64.13
2023-04-18T03:52:08.142Z,64.03
2023-04-18T03:54:35.759Z,64.22
2023-04-18T03:57:03.576Z,64.13
2023-04-18T03:59:31.198Z,64.13
2023-04-18T04:02:00.333Z,64.19
2023-04-18T04:04:28.207Z,64.33
2023-04-18T04:06:55.880Z,64.26
2023-04-18T04:09:23.482Z,64.25
2023-04-18T04:11:51.082Z,64.31
2023-04-18T04:14:18.751Z,64.09
2023-04-18T04:16:46.510Z,64.24
2023-04-18T04:19:15.917Z,64.13
2023-04-18T04:21:43.614Z,64.56
2023-04-18T04:24:11.415Z,64.27
2023-04-18T04:26:40.417Z,64.28
2023-04-18T04:29:08.091Z,64.44
2023-04-18T04:31:35.667Z,64.22
2023-04-18T04:34:03.495Z,64.27
2023-04-18T04:36:33.461Z,64.42
2023-04-18T04:39:03.504Z,64.05
2023-04-18T04:41:31.674Z,64.44
2023-04-18T04:43:59.555Z,64.01
2023-04-18T04:46:29.400Z,64.36
2023-04-18T04:48:57.024Z,64.34
2023-04-18T04:51:24.863Z,64.14
2023-04-18T04:53:53.865Z,64.29
2023-04-18T04:56:22.854Z,64.24
2023-04-18T04:58:50.805Z,64.46
2023-04-18T05:01:18.445Z,64.34
2023-04-18T05:03:46.310Z,64.42
2023-04-18T05:06:15.543Z,64.33
2023-04-18T05:08:43.135Z,64.32
2023-04-18T05:11:12.158Z,64.29
2023-04-18T05:13:39.781Z,64.33
2023-04-18T05:16:07.730Z,64.27
2023-04-18T05:18:37.464Z,64.30
2023-04-18T05:21:05.742Z,64.59
2023-04-18T05:23:34.811Z,64.43
2023-04-18T05:26:02.416Z,64.38
2023-04-18T05:28:31.453Z,64.40
2023-04-18T05:31:02.033Z,64.58
2023-04-18T05:33:29.780Z,64.30
2023-04-18T05:35:58.178Z,64.64
2023-04-18T05:38:25.860Z,64.58
2023-04-18T05:40:55.628Z,64.67
2023-04-18T05:43:23.744Z,64.34
2023-04-18T05:45:54.730Z,64.53
2023-04-18T05:48:25.080Z,64.19
2023-04-18T05:50:52.709Z,64.38
2023-04-18T05:53:20.297Z,64.07
2023-04-18T05:55:48.856Z,64.43
2023-04-18T05:58:16.545Z,64.13
2023-04-18T06:00:44.343Z,64.52
2023-04-18T06:03:13.435Z,64.11
2023-04-18T06:05:41.313Z,64.17
2023-04-18T06:08:08.958Z,64.17
2023-04-18T06:10:39.076Z,64.21
2023-04-18T06:13:06.949Z,64.18
2023-04-18T06:15:35.679Z,64.27
2023-04-18T06:18:03.402Z,64.31
2023-04-18T06:20:32.407Z,64.40
2023-04-18T06:22:59.991Z,64.40
2023-04-18T06:25:28.305Z,64.35
2023-04-18T06:27:55.927Z,64.41
2023-04-18T06:30:23.730Z,64.18
2023-04-18T06:32:51.451Z,64.20
2023-04-18T06:35:19.110Z,64.09
2023-04-18T06:37:48.065Z,64.27
2023-04-18T06:40:15.692Z,64.56
2023-04-18T06:42:43.512Z,64.44
2023-04-18T06:45:12.102Z,64.32
2023-04-18T06:47:40.467Z,64.22
2023-04-18T06:50:09.369Z,64.46
2023-04-18T06:52:40.497Z,64.46
2023-04-18T06:55:10.128Z,64.23
2023-04-18T06:57:37.795Z,64.33
2023-04-18T07:00:07.513Z,64.39
2023-04-18T07:02:36.832Z,64.46
2023-04-18T07:05:05.003Z,64.11
2023-04-18T07:07:33.356Z,64.42
2023-04-18T07:10:01.123Z,64.42
2023-04-18T07:12:30.082Z,64.26
2023-04-18T07:14:57.767Z,64.48
2023-04-18T07:17:25.466Z,64.55
2023-04-18T07:19:53.118Z,64.51
2023-04-18T07:22:20.777Z,64.37
2023-04-18T07:24:48.398Z,64.29
2023-04-18T07:27:16.145Z,64.40
2023-04-18T07:29:45.150Z,64.33
2023-04-18T07:32:13.177Z,64.33
2023-04-18T07:34:41.391Z,64.54
2023-04-18T07:37:09.053Z,64.44
2023-04-18T07:39:36.772Z,64.51
2023-04-18T07:42:04.650Z,64.47
2023-04-18T07:44:32.509Z,64.34
2023-04-18T07:47:01.513Z,64.51
2023-04-18T07:49:29.110Z,64.27
2023-04-18T07:51:56.968Z,64.46
2023-04-18T07:54:24.624Z,64.48
2023-04-18T07:56:52.200Z,64.52
2023-04-18T07:59:20.122Z,64.46
2023-04-18T08:01:47.834Z,64.49
2023-04-18T08:04:16.886Z,64.31
2023-04-18T08:06:44.572Z,64.45
2023-04-18T08:09:12.525Z,64.43
2023-04-18T08:11:41.969Z,64.47
2023-04-18T08:14:09.632Z,64.37
2023-04-18T08:16:37.698Z,64.72
2023-04-18T08:19:05.329Z,64.56
2023-04-18T08:21:34.274Z,64.51
2023-04-18T08:24:01.909Z,64.51
2023-04-18T08:26:29.544Z,64.43
2023-04-18T08:28:57.212Z,64.47
2023-04-18T08:31:24.964Z,64.62
2023-04-18T08:33:52.629Z,64.55
2023-04-18T08:36:21.212Z,64.36
2023-04-18T08:38:50.214Z,64.51
2023-04-18T08:41:22.232Z,64.59
2023-04-18T08:43:50.201Z,64.52
2023-04-18T08:46:19.137Z,64.67
2023-04-18T08:48:51.326Z,64.57
2023-04-18T08:51:18.973Z,64.61
2023-04-18T08:53:48.315Z,64.60
2023-04-18T08:56:17.832Z,64.56
2023-04-18T08:58:45.620Z,64.33
2023-04-18T09:01:13.499Z,64.47
2023-04-18T09:03:43.269Z,64.70
2023-04-18T09:06:13.799Z,64.47
2023-04-18T09:08:43.290Z,64.73
2023-04-18T09:11:28.816Z,64.52
2023-04-18T09:13:58.810Z,64.33
2023-04-18T09:16:29.297Z,64.80
2023-04-18T09:19:11.625Z,64.70
2023-04-18T09:21:41.240Z,64.50
2023-04-18T09:24:27.100Z,64.53
2023-04-18T09:26:58.660Z,64.63
2023-04-18T09:29:46.590Z,64.57
2023-04-18T09:32:24.025Z,64.23
2023-04-18T09:34:54.455Z,64.31
2023-04-18T09:37:22.653Z,64.53
2023-04-18T09:39:51.422Z,64.57
2023-04-18T09:42:20.971Z,64.47
2023-04-18T09:45:04.855Z,64.47
2023-04-18T09:47:34.911Z,64.55
2023-04-18T09:50:03.717Z,64.62
2023-04-18T09:52:35.796Z,64.54
2023-04-18T09:55:05.372Z,64.58
2023-04-18T09:57:35.328Z,64.53
2023-04-18T10:00:10.631Z,64.47
2023-04-18T10:02:53.310Z,64.49
2023-04-18T10:05:22.484Z,64.58
2023-04-18T10:07:51.119Z,64.27
2023-04-18T10:10:19.155Z,64.81
2023-04-18T10:12:50.601Z,64.71
2023-04-18T10:15:19.184Z,64.41
2023-04-18T10:18:03.337Z,64.50
2023-04-18T10:20:34.673Z,64.72
2023-04-18T10:23:36.150Z,64.77
2023-04-18T10:26:06.003Z,64.46
2023-04-18T10:28:56.611Z,64.70
2023-04-18T10:31:25.873Z,64.58
2023-04-18T10:36:28.232Z,64.71
2023-04-18T10:38:57.170Z,64.76
2023-04-18T10:41:28.266Z,64.76
2023-04-18T10:44:13.243Z,64.58
2023-04-18T10:46:43.095Z,64.49
2023-04-18T10:49:14.817Z,64.92
2023-04-18T10:51:42.956Z,64.31
2023-04-18T10:54:11.816Z,64.48
2023-04-18T10:56:41.102Z,64.66
2023-04-18T10:59:12.477Z,64.65
2023-04-18T11:01:46.259Z,64.57
2023-04-18T11:04:15.703Z,64.44
2023-04-18T11:06:51.118Z,64.70
2023-04-18T11:09:18.740Z,64.78
2023-04-18T11:11:47.763Z,64.73
2023-04-18T11:14:15.576Z,64.72
2023-04-18T11:16:43.469Z,64.48
2023-04-18T11:19:23.253Z,64.82
2023-04-18T11:21:52.361Z,64.63
2023-04-18T11:24:24.100Z,64.68
2023-04-18T11:26:55.659Z,64.52
2023-04-18T11:29:23.850Z,64.70
2023-04-18T11:31:54.040Z,64.40
2023-04-18T11:34:23.603Z,64.62
2023-04-18T11:36:51.820Z,64.48
2023-04-18T11:39:19.774Z,64.60
2023-04-18T11:41:50.453Z,64.73
2023-04-18T11:44:19.782Z,64.58
2023-04-18T11:46:47.693Z,64.85
2023-04-18T11:49:28.851Z,64.58
2023-04-18T11:51:56.697Z,64.49
2023-04-18T11:54:37.465Z,64.57
2023-04-18T11:57:05.501Z,64.47
2023-04-18T11:59:34.681Z,64.73
2023-04-18T12:02:15.376Z,64.83
2023-04-18T12:04:55.926Z,64.54
2023-04-18T12:07:35.167Z,64.84
2023-04-18T12:10:03.803Z,64.63
2023-04-18T12:12:31.516Z,64.98
2023-04-18T12:15:02.411Z,64.69
2023-04-18T12:17:30.710Z,64.62
2023-04-18T12:20:02.458Z,64.53
2023-04-18T12:22:44.835Z,64.75
2023-04-18T12:25:20.197Z,64.50
2023-04-18T12:27:49.580Z,64.71
2023-04-18T12:30:21.250Z,64.87
2023-04-18T12:32:53.920Z,64.66
2023-04-18T12:35:22.917Z,64.72
2023-04-18T12:37:52.077Z,64.74
2023-04-18T12:40:21.897Z,64.59
2023-04-18T12:42:50.616Z,64.67
2023-04-18T12:45:21.650Z,64.47
2023-04-18T12:47:52.058Z,64.89
2023-04-18T12:50:22.612Z,64.60
2023-04-18T12:52:51.991Z,64.67
2023-04-18T12:55:20.086Z,64.60
2023-04-18T12:57:47.776Z,64.56
2023-04-18T13:00:15.617Z,64.87
2023-04-18T13:02:46.102Z,64.58
2023-04-18T13:05:17.225Z,64.67
2023-04-18T13:07:47.311Z,64.38
2023-04-18T13:10:17.553Z,64.62
2023-04-18T13:12:45.780Z,64.68
2023-04-18T13:15:13.885Z,64.45
2023-04-18T13:17:41.587Z,64.58
2023-04-18T13:20:12.588Z,64.64
2023-04-18T13:22:41.479Z,64.71
2023-04-18T13:25:11.334Z,64.68
2023-04-18T13:27:41.567Z,64.89
2023-04-18T13:30:11.546Z,64.92
2023-04-18T13:32:40.417Z,64.59
2023-04-18T13:35:11.220Z,64.70
2023-04-18T13:37:39.476Z,64.59
2023-04-18T13:40:08.722Z,64.70
2023-04-18T13:42:38.060Z,64.64
2023-04-18T13:45:07.301Z,64.72
2023-04-18T13:47:35.795Z,64.79
2023-04-18T13:50:03.689Z,64.88
2023-04-18T13:52:32.630Z,64.65
2023-04-18T13:55:01.025Z,64.91
2023-04-18T13:57:31.939Z,64.77
2023-04-18T13:59:59.654Z,64.64
2023-04-18T14:02:27.442Z,64.67
2023-04-18T14:04:55.535Z,64.79
2023-04-18T14:07:23.310Z,64.81
2023-04-18T14:09:53.813Z,64.82
2023-04-18T14:12:21.708Z,64.45
2023-04-18T14:14:49.291Z,64.85
2023-04-18T14:17:16.976Z,64.80
2023-04-18T14:19:44.550Z,64.65
2023-04-18T14:22:12.288Z,64.77
2023-04-18T14:24:39.908Z,64.60
2023-04-18T14:27:08.905Z,64.89
2023-04-18T14:29:36.536Z,64.63
2023-04-18T14:32:04.162Z,64.61
2023-04-18T14:34:33.938Z,64.81
2023-04-18T14:37:02.870Z,64.69
2023-04-18T14:39:31.030Z,64.68
2023-04-18T14:41:58.695Z,64.81
2023-04-18T14:44:27.690Z,64.84
2023-04-18T14:46:55.352Z,64.90
2023-04-18T14:49:23.157Z,64.46
2023-04-18T14:51:50.789Z,64.77
2023-04-18T14:54:18.405Z,64.65
2023-04-18T14:56:46.012Z,64.83
2023-04-18T14:59:16.439Z,64.75
2023-04-18T15:01:45.920Z,64.71
2023-04-18T15:04:13.787Z,65.04
2023-04-18T15:06:41.631Z,65.24
2023-04-18T15:09:09.245Z,65.45
2023-04-18T15:11:36.910Z,65.42
2023-04-18T15:14:04.528Z,65.46
2023-04-18T15:16:32.188Z,65.45
2023-04-18T15:19:01.205Z,65.56
2023-04-18T15:21:28.791Z,65.42
2023-04-18T15:23:57.231Z,65.33
2023-04-18T15:26:26.102Z,65.60
2023-04-18T15:28:55.205Z,65.69
2023-04-18T15:31:23.345Z,65.41
2023-04-18T15:33:50.995Z,65.29
2023-04-18T15:36:19.957Z,65.31
2023-04-18T15:38:47.573Z,65.52
2023-04-18T15:41:15.635Z,65.11
2023-04-18T15:43:45.279Z,65.41
2023-04-18T15:46:12.909Z,65.25
2023-04-18T15:48:40.578Z,64.85
2023-04-18T15:51:08.175Z,65.25
2023-04-18T15:53:37.176Z,65.23
2023-04-18T15:56:05.925Z,64.86
2023-04-18T15:58:33.545Z,65.04
2023-04-18T16:01:01.331Z,65.02
2023-04-18T16:03:29.066Z,65.24
2023-04-18T16:05:56.789Z,64.74
2023-04-18T16:08:24.438Z,64.83
2023-04-18T16:10:54.120Z,64.99
2023-04-18T16:13:21.731Z,64.83
2023-04-18T16:15:49.433Z,64.90
2023-04-18T16:18:17.045Z,64.75
2023-04-18T16:20:44.633Z,64.99
2023-04-18T16:23:12.222Z,64.71
2023-04-18T16:25:39.828Z,64.80
2023-04-18T16:28:08.808Z,64.70
2023-04-18T16:30:36.530Z,64.90
2023-04-18T16:33:04.651Z,64.72
2023-04-18T16:35:32.339Z,64.85
2023-04-18T16:37:59.939Z,64.74
2023-04-18T16:40:30.567Z,65.11
2023-04-18T16:42:58.289Z,65.04
2023-04-18T16:45:27.272Z,65.16
2023-04-18T16:47:54.959Z,65.21
2023-04-18T16:50:22.792Z,65.04
2023-04-18T16:52:50.431Z,65.08
2023-04-18T16:55:18.103Z,65.18
2023-04-18T16:57:45.721Z,65.21
2023-04-18T17:00:14.514Z,64.98
2023-04-18T17:02:45.227Z,65.01
2023-04-18T17:05:13.024Z,65.07
2023-04-18T17:07:40.631Z,64.92
2023-04-18T17:10:10.111Z,64.83
2023-04-18T17:12:37.895Z,64.90
2023-04-18T17:15:06.913Z,64.93
2023-04-18T17:17:35.434Z,65.03
2023-04-18T17:20:06.911Z,65.23
2023-04-18T17:22:34.544Z,64.93
2023-04-18T17:25:02.996Z,65.26
2023-04-18T17:27:30.723Z,64.95
2023-04-18T17:29:58.352Z,64.75
2023-04-18T17:32:26.071Z,65.09
2023-04-18T17:34:53.779Z,65.19
2023-04-18T17:37:23.171Z,65.04
2023-04-18T17:39:50.817Z,64.97
2023-04-18T17:42:21.062Z,64.84
2023-04-18T17:44:48.695Z,64.89
2023-04-18T17:47:16.310Z,65.03
2023-04-18T17:49:43.997Z,64.82
2023-04-18T17:52:11.591Z,64.87
2023-04-18T17:54:40.537Z,64.95
2023-04-18T17:57:08.160Z,64.68
2023-04-18T17:59:37.670Z,64.74
2023-04-18T18:02:05.616Z,65.01
2023-04-18T18:04:33.516Z,65.02
2023-04-18T18:07:01.254Z,65.19
2023-04-18T18:09:28.855Z,65.04
2023-04-18T18:11:58.640Z,65.17
2023-04-18T18:14:26.270Z,65.01
2023-04-18T18:16:53.962Z,64.94
2023-04-18T18:19:21.645Z,65.01
2023-04-18T18:21:49.227Z,64.89
2023-04-18T18:24:16.828Z,65.01
2023-04-18T18:26:44.430Z,65.10
2023-04-18T18:29:13.643Z,64.79
2023-04-18T18:31:42.259Z,65.15
2023-04-18T18:34:10.054Z,65.16
2023-04-18T18:36:37.757Z,65.19
2023-04-18T18:39:05.463Z,65.23
2023-04-18T18:41:33.042Z,64.88
2023-04-18T18:44:00.708Z,65.02
2023-04-18T18:46:29.692Z,65.14
2023-04-18T18:48:57.378Z,65.04
2023-04-18T18:51:26.146Z,65.05
2023-04-18T18:53:53.757Z,65.02
2023-04-18T18:56:21.612Z,65.02
2023-04-18T18:58:49.199Z,65.08
2023-04-18T19:01:16.890Z,64.88
2023-04-18T19:03:46.609Z,65.10
2023-04-18T19:06:14.881Z,64.94
2023-04-18T19:08:42.955Z,65.26
2023-04-18T19:11:12.902Z,65.03
2023-04-18T19:13:40.969Z,65.03
2023-04-18T19:16:08.924Z,65.13
2023-04-18T19:18:37.045Z,64.73
2023-04-18T19:21:06.390Z,65.05
2023-04-18T19:23:34.585Z,64.93
2023-04-18T19:26:02.768Z,64.92
2023-04-18T19:28:31.010Z,64.94
2023-04-18T19:30:59.094Z,65.10
2023-04-18T19:33:28.043Z,65.08
2023-04-18T19:35:56.385Z,64.89
2023-04-18T19:38:27.234Z,65.15
2023-04-18T19:40:55.375Z,65.06
2023-04-18T19:43:23.332Z,64.90
2023-04-18T19:45:52.617Z,64.88
2023-04-18T19:48:22.198Z,65.00
2023-04-18T19:50:55.450Z,64.98
2023-04-18T19:53:23.950Z,64.73
2023-04-18T19:55:54.903Z,64.85
2023-04-18T19:58:45.297Z,64.91
2023-04-18T20:01:13.834Z,65.04
2023-04-18T20:03:42.350Z,64.91
2023-04-18T20:06:10.592Z,65.13
2023-04-18T20:08:41.733Z,64.89
2023-04-18T20:11:12.163Z,64.81
2023-04-18T20:13:40.234Z,65.00
2023-04-18T20:16:09.166Z,65.11
2023-04-18T20:18:39.560Z,65.01
2023-04-18T20:21:08.847Z,64.91
2023-04-18T20:23:36.894Z,64.81
2023-04-18T20:26:05.102Z,64.85
2023-04-18T20:28:34.218Z,65.22
2023-04-18T20:31:02.438Z,64.84
2023-04-18T20:33:30.288Z,65.23
2023-04-18T20:35:58.865Z,65.26
2023-04-18T20:38:29.524Z,65.02
2023-04-18T20:40:58.819Z,64.92
2023-04-18T20:43:26.758Z,64.84
2023-04-18T20:45:57.686Z,65.21
2023-04-18T20:48:25.489Z,64.88
2023-04-18T20:50:53.165Z,64.97
2023-04-18T20:53:21.640Z,65.08
2023-04-18T20:55:49.492Z,64.89
2023-04-18T20:58:17.208Z,65.07
2023-04-18T21:00:45.267Z,64.83
2023-04-18T21:03:15.422Z,65.22
2023-04-18T21:05:44.194Z,64.97
2023-04-18T21:08:11.953Z,64.88
2023-04-18T21:10:39.672Z,64.99
2023-04-18T21:13:07.366Z,65.17
2023-04-18T21:15:36.176Z,64.89
2023-04-18T21:18:03.917Z,64.83
2023-04-18T21:20:34.218Z,64.96
2023-04-18T21:23:01.856Z,65.10
2023-04-18T21:25:29.659Z,65.13
2023-04-18T21:27:57.267Z,65.21
2023-04-18T21:30:25.231Z,65.25
2023-04-18T21:32:52.866Z,65.24
2023-04-18T21:35:22.603Z,65.00
2023-04-18T21:37:53.195Z,65.08
2023-04-18T21:40:20.990Z,65.36
2023-04-18T21:42:50.860Z,65.07
2023-04-18T21:45:18.886Z,65.14
2023-04-18T21:47:46.814Z,65.33
2023-04-18T21:50:14.578Z,65.29
2023-04-18T21:52:42.182Z,65.22
2023-04-18T21:55:11.428Z,65.30
2023-04-18T21:57:38.991Z,65.06
2023-04-18T22:00:10.485Z,65.14
2023-04-18T22:02:38.445Z,65.13
2023-04-18T22:05:07.500Z,65.15
2023-04-18T22:07:43.354Z,65.14
2023-04-18T22:10:19.567Z,65.18
2023-04-18T22:12:47.257Z,65.11
2023-04-18T22:15:14.972Z,65.09
2023-04-18T22:17:43.090Z,65.15
2023-04-18T22:20:11.326Z,65.19
2023-04-18T22:22:39.182Z,65.13
2023-04-18T22:25:11.338Z,64.90
2023-04-18T22:27:42.522Z,64.89
2023-04-18T22:30:11.209Z,65.15
2023-04-18T22:32:39.009Z,65.15
2023-04-18T22:35:08.192Z,65.19
2023-04-18T22:37:35.793Z,64.82
2023-04-18T22:40:03.690Z,65.31
2023-04-18T22:42:33.651Z,64.84
2023-04-18T22:45:02.957Z,64.97
2023-04-18T22:47:30.573Z,64.95
2023-04-18T22:49:58.198Z,64.81
2023-04-18T22:52:26.057Z,64.97
2023-04-18T22:54:53.884Z,65.25
2023-04-18T22:57:21.751Z,64.95
2023-04-18T22:59:49.341Z,65.15
2023-04-18T23:02:18.469Z,65.04
2023-04-18T23:04:46.366Z,65.09
2023-04-18T23:07:14.167Z,65.11
2023-04-18T23:09:41.801Z,65.12
2023-04-18T23:12:09.462Z,65.14
2023-04-18T23:14:37.151Z,64.94
2023-04-18T23:17:04.736Z,65.16
2023-04-18T23:19:33.783Z,64.95
2023-04-18T23:22:01.389Z,65.24
2023-04-18T23:24:29.035Z,65.11
2023-04-18T23:26:57.050Z,65.19
2023-04-18T23:29:25.016Z,65.33
2023-04-18T23:31:52.714Z,64.98
2023-04-18T23:34:20.388Z,65.12
2023-04-18T23:36:49.315Z,65.18
2023-04-18T23:39:18.401Z,65.32
2023-04-18T23:41:46.185Z,65.23
2023-04-18T23:44:14.041Z,65.32
2023-04-18T23:46:41.930Z,65.00
2023-04-18T23:49:09.818Z,65.08
2023-04-18T23:51:37.440Z,64.93
2023-04-18T23:54:06.558Z,65.13
2023-04-18T23:56:34.797Z,65.10
2023-04-18T23:59:02.457Z,65.23
